sensor_id;sensor_type;location;lat;lon;timestamp;P1;durP1;ratioP1;P2;durP2;ratioP2
52898;SDS011;38763;53.096;6.062;2024-03-17T00:01:37;5.50;;;2.10;;
52898;SDS011;38763;53.096;6.062;2024-03-17T00:04:03;6.63;;;2.30;;
52898;SDS011;38763;53.096;6.062;2024-03-17T00:06:29;6.00;;;2.13;;
52898;SDS011;38763;53.096;6.062;2024-03-17T00:08:55;6.45;;;2.30;;
52898;SDS011;38763;53.096;6.062;2024-03-17T00:11:21;7.00;;;2.42;;
52898;SDS011;38763;53.096;6.062;2024-03-17T00:13:46;7.82;;;2.60;;
52898;SDS011;38763;53.096;6.062;2024-03-17T00:16:12;7.22;;;2.58;;
52898;SDS011;38763;53.096;6.062;2024-03-17T00:18:39;7.05;;;2.80;;
52898;SDS011;38763;53.096;6.062;2024-03-17T00:21:06;6.63;;;3.00;;
52898;SDS011;38763;53.096;6.062;2024-03-17T00:23:31;7.90;;;2.85;;
52898;SDS011;38763;53.096;6.062;2024-03-17T00:26:00;6.68;;;3.00;;
52898;SDS011;38763;53.096;6.062;2024-03-17T00:28:25;6.95;;;3.38;;
52898;SDS011;38763;53.096;6.062;2024-03-17T00:30:51;7.68;;;3.22;;
52898;SDS011;38763;53.096;6.062;2024-03-17T00:33:17;8.15;;;3.35;;
52898;SDS011;38763;53.096;6.062;2024-03-17T00:35:44;6.38;;;3.00;;
52898;SDS011;38763;53.096;6.062;2024-03-17T00:38:10;6.65;;;3.00;;
52898;SDS011;38763;53.096;6.062;2024-03-17T00:40:36;9.63;;;3.20;;
52898;SDS011;38763;53.096;6.062;2024-03-17T00:43:03;7.57;;;2.88;;
52898;SDS011;38763;53.096;6.062;2024-03-17T00:45:29;5.70;;;2.97;;
52898;SDS011;38763;53.096;6.062;2024-03-17T00:47:54;6.10;;;2.85;;
52898;SDS011;38763;53.096;6.062;2024-03-17T00:50:20;6.75;;;2.85;;
52898;SDS011;38763;53.096;6.062;2024-03-17T00:52:46;6.82;;;3.03;;
52898;SDS011;38763;53.096;6.062;2024-03-17T00:55:14;6.18;;;2.88;;
52898;SDS011;38763;53.096;6.062;2024-03-17T00:57:40;9.85;;;2.88;;
52898;SDS011;38763;53.096;6.062;2024-03-17T01:00:06;6.47;;;2.50;;
52898;SDS011;38763;53.096;6.062;2024-03-17T01:02:35;10.18;;;2.70;;
52898;SDS011;38763;53.096;6.062;2024-03-17T01:05:01;6.28;;;2.17;;
52898;SDS011;38763;53.096;6.062;2024-03-17T01:07:26;4.65;;;2.00;;
52898;SDS011;38763;53.096;6.062;2024-03-17T01:09:52;6.55;;;2.20;;
52898;SDS011;38763;53.096;6.062;2024-03-17T01:12:19;5.75;;;1.85;;
52898;SDS011;38763;53.096;6.062;2024-03-17T01:14:44;7.13;;;2.00;;
52898;SDS011;38763;53.096;6.062;2024-03-17T01:17:10;6.57;;;1.90;;
52898;SDS011;38763;53.096;6.062;2024-03-17T01:19:36;4.82;;;1.92;;
52898;SDS011;38763;53.096;6.062;2024-03-17T01:22:01;5.18;;;1.92;;
52898;SDS011;38763;53.096;6.062;2024-03-17T01:24:27;6.45;;;1.98;;
52898;SDS011;38763;53.096;6.062;2024-03-17T01:26:57;4.38;;;1.65;;
52898;SDS011;38763;53.096;6.062;2024-03-17T01:29:24;4.32;;;1.80;;
52898;SDS011;38763;53.096;6.062;2024-03-17T01:31:49;7.30;;;2.00;;
52898;SDS011;38763;53.096;6.062;2024-03-17T01:34:16;8.98;;;2.05;;
52898;SDS011;38763;53.096;6.062;2024-03-17T01:36:43;6.18;;;2.00;;
52898;SDS011;38763;53.096;6.062;2024-03-17T01:39:09;5.80;;;1.85;;
52898;SDS011;38763;53.096;6.062;2024-03-17T01:41:38;6.03;;;1.90;;
52898;SDS011;38763;53.096;6.062;2024-03-17T01:44:04;5.50;;;1.83;;
52898;SDS011;38763;53.096;6.062;2024-03-17T01:46:30;4.57;;;1.88;;
52898;SDS011;38763;53.096;6.062;2024-03-17T01:48:56;7.90;;;2.10;;
52898;SDS011;38763;53.096;6.062;2024-03-17T01:51:22;6.03;;;1.83;;
52898;SDS011;38763;53.096;6.062;2024-03-17T01:53:48;12.55;;;2.42;;
52898;SDS011;38763;53.096;6.062;2024-03-17T01:56:14;4.95;;;1.70;;
52898;SDS011;38763;53.096;6.062;2024-03-17T01:58:43;4.13;;;1.75;;
52898;SDS011;38763;53.096;6.062;2024-03-17T02:01:09;7.18;;;2.15;;
52898;SDS011;38763;53.096;6.062;2024-03-17T02:03:35;4.03;;;1.70;;
52898;SDS011;38763;53.096;6.062;2024-03-17T02:06:01;7.45;;;2.13;;
52898;SDS011;38763;53.096;6.062;2024-03-17T02:08:27;5.95;;;2.10;;
52898;SDS011;38763;53.096;6.062;2024-03-17T02:10:55;6.90;;;1.90;;
52898;SDS011;38763;53.096;6.062;2024-03-17T02:13:21;6.50;;;1.92;;
52898;SDS011;38763;53.096;6.062;2024-03-17T02:15:47;5.25;;;1.90;;
52898;SDS011;38763;53.096;6.062;2024-03-17T02:18:13;8.50;;;2.00;;
52898;SDS011;38763;53.096;6.062;2024-03-17T02:20:39;7.40;;;2.42;;
52898;SDS011;38763;53.096;6.062;2024-03-17T02:23:20;5.63;;;2.13;;
52898;SDS011;38763;53.096;6.062;2024-03-17T02:25:46;6.70;;;2.35;;
52898;SDS011;38763;53.096;6.062;2024-03-17T02:28:13;8.48;;;2.28;;
52898;SDS011;38763;53.096;6.062;2024-03-17T02:30:38;6.55;;;1.85;;
52898;SDS011;38763;53.096;6.062;2024-03-17T02:33:04;7.68;;;2.30;;
52898;SDS011;38763;53.096;6.062;2024-03-17T02:35:30;8.80;;;2.50;;
52898;SDS011;38763;53.096;6.062;2024-03-17T02:37:58;8.02;;;2.40;;
52898;SDS011;38763;53.096;6.062;2024-03-17T02:40:24;11.90;;;2.58;;
52898;SDS011;38763;53.096;6.062;2024-03-17T02:42:49;8.05;;;2.42;;
52898;SDS011;38763;53.096;6.062;2024-03-17T02:45:15;5.47;;;2.60;;
52898;SDS011;38763;53.096;6.062;2024-03-17T02:47:41;8.80;;;2.60;;
52898;SDS011;38763;53.096;6.062;2024-03-17T02:50:07;7.50;;;2.80;;
52898;SDS011;38763;53.096;6.062;2024-03-17T02:52:34;11.45;;;2.50;;
52898;SDS011;38763;53.096;6.062;2024-03-17T02:55:00;6.55;;;2.30;;
52898;SDS011;38763;53.096;6.062;2024-03-17T02:57:27;12.27;;;3.03;;
52898;SDS011;38763;53.096;6.062;2024-03-17T02:59:57;7.28;;;2.80;;
52898;SDS011;38763;53.096;6.062;2024-03-17T03:02:23;7.90;;;2.83;;
52898;SDS011;38763;53.096;6.062;2024-03-17T03:04:49;7.22;;;2.60;;
52898;SDS011;38763;53.096;6.062;2024-03-17T03:07:15;10.75;;;2.80;;
52898;SDS011;38763;53.096;6.062;2024-03-17T03:09:41;8.68;;;3.15;;
52898;SDS011;38763;53.096;6.062;2024-03-17T03:12:07;8.18;;;2.70;;
52898;SDS011;38763;53.096;6.062;2024-03-17T03:14:32;12.32;;;2.97;;
52898;SDS011;38763;53.096;6.062;2024-03-17T03:16:58;9.90;;;2.90;;
52898;SDS011;38763;53.096;6.062;2024-03-17T03:19:25;8.80;;;2.70;;
52898;SDS011;38763;53.096;6.062;2024-03-17T03:21:51;6.18;;;2.63;;
52898;SDS011;38763;53.096;6.062;2024-03-17T03:24:17;10.10;;;2.80;;
52898;SDS011;38763;53.096;6.062;2024-03-17T03:26:43;10.63;;;3.00;;
52898;SDS011;38763;53.096;6.062;2024-03-17T03:29:09;6.68;;;2.83;;
52898;SDS011;38763;53.096;6.062;2024-03-17T03:31:35;10.85;;;3.13;;
52898;SDS011;38763;53.096;6.062;2024-03-17T03:34:04;8.10;;;2.67;;
52898;SDS011;38763;53.096;6.062;2024-03-17T03:36:32;11.07;;;2.97;;
52898;SDS011;38763;53.096;6.062;2024-03-17T03:38:59;12.20;;;3.40;;
52898;SDS011;38763;53.096;6.062;2024-03-17T03:41:24;6.80;;;2.55;;
52898;SDS011;38763;53.096;6.062;2024-03-17T03:43:50;15.45;;;3.08;;
52898;SDS011;38763;53.096;6.062;2024-03-17T03:46:16;8.55;;;2.80;;
52898;SDS011;38763;53.096;6.062;2024-03-17T03:48:41;8.88;;;2.90;;
52898;SDS011;38763;53.096;6.062;2024-03-17T03:51:08;8.70;;;2.78;;
52898;SDS011;38763;53.096;6.062;2024-03-17T03:53:35;10.02;;;2.67;;
52898;SDS011;38763;53.096;6.062;2024-03-17T03:56:05;8.88;;;3.00;;
52898;SDS011;38763;53.096;6.062;2024-03-17T03:58:34;10.13;;;3.00;;
52898;SDS011;38763;53.096;6.062;2024-03-17T04:01:04;11.10;;;2.88;;
52898;SDS011;38763;53.096;6.062;2024-03-17T04:03:31;12.38;;;3.30;;
52898;SDS011;38763;53.096;6.062;2024-03-17T04:06:04;9.50;;;2.85;;
52898;SDS011;38763;53.096;6.062;2024-03-17T04:08:32;9.23;;;2.78;;
52898;SDS011;38763;53.096;6.062;2024-03-17T04:11:01;11.63;;;2.88;;
52898;SDS011;38763;53.096;6.062;2024-03-17T04:13:28;11.13;;;2.67;;
52898;SDS011;38763;53.096;6.062;2024-03-17T04:15:58;10.15;;;2.50;;
52898;SDS011;38763;53.096;6.062;2024-03-17T04:18:31;11.40;;;3.17;;
52898;SDS011;38763;53.096;6.062;2024-03-17T04:21:03;9.57;;;2.70;;
52898;SDS011;38763;53.096;6.062;2024-03-17T04:23:30;11.07;;;2.90;;
52898;SDS011;38763;53.096;6.062;2024-03-17T04:25:57;10.10;;;2.50;;
52898;SDS011;38763;53.096;6.062;2024-03-17T04:28:23;11.35;;;2.70;;
52898;SDS011;38763;53.096;6.062;2024-03-17T04:30:49;8.60;;;2.90;;
52898;SDS011;38763;53.096;6.062;2024-03-17T04:33:14;10.38;;;2.90;;
52898;SDS011;38763;53.096;6.062;2024-03-17T04:35:42;10.27;;;2.53;;
52898;SDS011;38763;53.096;6.062;2024-03-17T04:38:08;8.15;;;2.40;;
52898;SDS011;38763;53.096;6.062;2024-03-17T04:40:34;11.48;;;2.63;;
52898;SDS011;38763;53.096;6.062;2024-03-17T04:43:04;9.55;;;2.92;;
52898;SDS011;38763;53.096;6.062;2024-03-17T04:45:30;9.93;;;2.60;;
52898;SDS011;38763;53.096;6.062;2024-03-17T04:47:55;9.75;;;2.92;;
52898;SDS011;38763;53.096;6.062;2024-03-17T04:50:21;13.32;;;2.80;;
52898;SDS011;38763;53.096;6.062;2024-03-17T04:52:47;10.60;;;2.72;;
52898;SDS011;38763;53.096;6.062;2024-03-17T04:55:16;12.55;;;2.80;;
52898;SDS011;38763;53.096;6.062;2024-03-17T04:57:44;11.00;;;2.75;;
52898;SDS011;38763;53.096;6.062;2024-03-17T05:00:10;7.95;;;2.55;;
52898;SDS011;38763;53.096;6.062;2024-03-17T05:02:37;10.20;;;2.88;;
52898;SDS011;38763;53.096;6.062;2024-03-17T05:05:03;12.85;;;3.47;;
52898;SDS011;38763;53.096;6.062;2024-03-17T05:07:30;10.60;;;2.75;;
52898;SDS011;38763;53.096;6.062;2024-03-17T05:09:56;10.82;;;2.75;;
52898;SDS011;38763;53.096;6.062;2024-03-17T05:12:22;10.13;;;3.38;;
52898;SDS011;38763;53.096;6.062;2024-03-17T05:14:48;9.30;;;2.83;;
52898;SDS011;38763;53.096;6.062;2024-03-17T05:17:14;13.85;;;2.70;;
52898;SDS011;38763;53.096;6.062;2024-03-17T05:19:39;12.27;;;3.35;;
52898;SDS011;38763;53.096;6.062;2024-03-17T05:22:05;12.85;;;2.92;;
52898;SDS011;38763;53.096;6.062;2024-03-17T05:24:31;10.10;;;3.28;;
52898;SDS011;38763;53.096;6.062;2024-03-17T05:26:57;10.02;;;2.95;;
52898;SDS011;38763;53.096;6.062;2024-03-17T05:29:22;10.88;;;3.53;;
52898;SDS011;38763;53.096;6.062;2024-03-17T05:31:48;13.38;;;2.85;;
52898;SDS011;38763;53.096;6.062;2024-03-17T05:34:15;9.43;;;2.97;;
52898;SDS011;38763;53.096;6.062;2024-03-17T05:36:40;11.55;;;3.20;;
52898;SDS011;38763;53.096;6.062;2024-03-17T05:39:06;8.55;;;2.70;;
52898;SDS011;38763;53.096;6.062;2024-03-17T05:41:31;10.43;;;2.97;;
52898;SDS011;38763;53.096;6.062;2024-03-17T05:43:57;8.40;;;2.83;;
52898;SDS011;38763;53.096;6.062;2024-03-17T05:46:23;10.52;;;2.88;;
52898;SDS011;38763;53.096;6.062;2024-03-17T05:48:53;12.88;;;3.53;;
52898;SDS011;38763;53.096;6.062;2024-03-17T05:51:19;10.65;;;3.28;;
52898;SDS011;38763;53.096;6.062;2024-03-17T05:53:44;12.38;;;3.15;;
52898;SDS011;38763;53.096;6.062;2024-03-17T05:56:10;8.23;;;3.30;;
52898;SDS011;38763;53.096;6.062;2024-03-17T05:58:37;10.27;;;3.60;;
52898;SDS011;38763;53.096;6.062;2024-03-17T06:01:04;19.33;;;3.53;;
52898;SDS011;38763;53.096;6.062;2024-03-17T06:03:32;8.50;;;3.42;;
52898;SDS011;38763;53.096;6.062;2024-03-17T06:06:00;11.63;;;3.25;;
52898;SDS011;38763;53.096;6.062;2024-03-17T06:08:27;12.05;;;3.65;;
52898;SDS011;38763;53.096;6.062;2024-03-17T06:10:53;10.27;;;3.33;;
52898;SDS011;38763;53.096;6.062;2024-03-17T06:13:18;9.55;;;3.40;;
52898;SDS011;38763;53.096;6.062;2024-03-17T06:15:44;11.75;;;3.28;;
52898;SDS011;38763;53.096;6.062;2024-03-17T06:18:12;11.65;;;3.38;;
52898;SDS011;38763;53.096;6.062;2024-03-17T06:20:42;9.07;;;3.35;;
52898;SDS011;38763;53.096;6.062;2024-03-17T06:25:39;10.40;;;3.75;;
52898;SDS011;38763;53.096;6.062;2024-03-17T06:28:05;11.70;;;4.30;;
52898;SDS011;38763;53.096;6.062;2024-03-17T06:30:31;10.02;;;3.88;;
52898;SDS011;38763;53.096;6.062;2024-03-17T06:32:58;12.52;;;3.83;;
52898;SDS011;38763;53.096;6.062;2024-03-17T06:35:23;15.50;;;4.05;;
52898;SDS011;38763;53.096;6.062;2024-03-17T06:37:51;16.13;;;3.75;;
52898;SDS011;38763;53.096;6.062;2024-03-17T06:40:20;11.95;;;3.83;;
52898;SDS011;38763;53.096;6.062;2024-03-17T06:42:45;11.60;;;3.97;;
52898;SDS011;38763;53.096;6.062;2024-03-17T06:45:11;15.88;;;4.20;;
52898;SDS011;38763;53.096;6.062;2024-03-17T06:47:37;13.80;;;4.10;;
52898;SDS011;38763;53.096;6.062;2024-03-17T06:50:03;12.23;;;4.18;;
52898;SDS011;38763;53.096;6.062;2024-03-17T06:52:30;15.27;;;3.47;;
52898;SDS011;38763;53.096;6.062;2024-03-17T06:54:58;10.93;;;3.80;;
52898;SDS011;38763;53.096;6.062;2024-03-17T06:57:24;11.77;;;4.10;;
52898;SDS011;38763;53.096;6.062;2024-03-17T06:59:50;13.27;;;4.57;;
52898;SDS011;38763;53.096;6.062;2024-03-17T07:02:16;12.85;;;3.90;;
52898;SDS011;38763;53.096;6.062;2024-03-17T07:04:46;9.70;;;3.65;;
52898;SDS011;38763;53.096;6.062;2024-03-17T07:07:13;9.68;;;3.50;;
52898;SDS011;38763;53.096;6.062;2024-03-17T07:09:42;15.50;;;4.07;;
52898;SDS011;38763;53.096;6.062;2024-03-17T07:12:08;13.95;;;3.70;;
52898;SDS011;38763;53.096;6.062;2024-03-17T07:14:34;15.18;;;4.13;;
52898;SDS011;38763;53.096;6.062;2024-03-17T07:17:00;11.07;;;4.25;;
52898;SDS011;38763;53.096;6.062;2024-03-17T07:19:26;14.18;;;4.03;;
52898;SDS011;38763;53.096;6.062;2024-03-17T07:21:52;15.43;;;3.90;;
52898;SDS011;38763;53.096;6.062;2024-03-17T07:24:17;11.20;;;3.95;;
52898;SDS011;38763;53.096;6.062;2024-03-17T07:26:43;9.85;;;3.72;;
52898;SDS011;38763;53.096;6.062;2024-03-17T07:29:09;10.30;;;3.95;;
52898;SDS011;38763;53.096;6.062;2024-03-17T07:31:35;12.00;;;3.70;;
52898;SDS011;38763;53.096;6.062;2024-03-17T07:34:03;13.63;;;3.75;;
52898;SDS011;38763;53.096;6.062;2024-03-17T07:36:29;11.38;;;4.13;;
52898;SDS011;38763;53.096;6.062;2024-03-17T07:38:55;11.30;;;3.70;;
52898;SDS011;38763;53.096;6.062;2024-03-17T07:41:21;12.85;;;4.28;;
52898;SDS011;38763;53.096;6.062;2024-03-17T07:43:46;10.45;;;3.70;;
52898;SDS011;38763;53.096;6.062;2024-03-17T07:46:12;10.07;;;3.60;;
52898;SDS011;38763;53.096;6.062;2024-03-17T07:48:39;12.48;;;4.10;;
52898;SDS011;38763;53.096;6.062;2024-03-17T07:53:38;10.98;;;4.30;;
52898;SDS011;38763;53.096;6.062;2024-03-17T07:56:14;14.25;;;4.15;;
52898;SDS011;38763;53.096;6.062;2024-03-17T07:58:41;10.70;;;4.35;;
52898;SDS011;38763;53.096;6.062;2024-03-17T08:01:09;9.57;;;3.83;;
52898;SDS011;38763;53.096;6.062;2024-03-17T08:03:36;10.05;;;4.20;;
52898;SDS011;38763;53.096;6.062;2024-03-17T08:06:07;13.63;;;4.30;;
52898;SDS011;38763;53.096;6.062;2024-03-17T08:08:33;11.10;;;4.68;;
52898;SDS011;38763;53.096;6.062;2024-03-17T08:11:00;13.95;;;4.65;;
52898;SDS011;38763;53.096;6.062;2024-03-17T08:13:28;15.85;;;4.80;;
52898;SDS011;38763;53.096;6.062;2024-03-17T08:16:02;13.35;;;4.82;;
52898;SDS011;38763;53.096;6.062;2024-03-17T08:18:31;9.90;;;4.97;;
52898;SDS011;38763;53.096;6.062;2024-03-17T08:20:57;12.13;;;5.50;;
52898;SDS011;38763;53.096;6.062;2024-03-17T08:23:24;14.27;;;5.40;;
52898;SDS011;38763;53.096;6.062;2024-03-17T08:25:54;12.85;;;5.63;;
52898;SDS011;38763;53.096;6.062;2024-03-17T08:30:50;14.48;;;6.00;;
52898;SDS011;38763;53.096;6.062;2024-03-17T08:33:20;14.20;;;5.72;;
52898;SDS011;38763;53.096;6.062;2024-03-17T08:38:41;12.82;;;5.93;;
52898;SDS011;38763;53.096;6.062;2024-03-17T08:41:08;16.30;;;6.82;;
52898;SDS011;38763;53.096;6.062;2024-03-17T08:43:35;12.95;;;5.95;;
52898;SDS011;38763;53.096;6.062;2024-03-17T08:46:05;13.90;;;6.28;;
52898;SDS011;38763;53.096;6.062;2024-03-17T08:48:32;14.07;;;6.40;;
52898;SDS011;38763;53.096;6.062;2024-03-17T08:51:02;14.48;;;6.65;;
52898;SDS011;38763;53.096;6.062;2024-03-17T08:53:29;15.50;;;6.63;;
52898;SDS011;38763;53.096;6.062;2024-03-17T08:55:55;12.05;;;6.65;;
52898;SDS011;38763;53.096;6.062;2024-03-17T08:58:22;14.40;;;6.60;;
52898;SDS011;38763;53.096;6.062;2024-03-17T09:00:50;16.08;;;7.55;;
52898;SDS011;38763;53.096;6.062;2024-03-17T09:03:16;15.20;;;7.28;;
52898;SDS011;38763;53.096;6.062;2024-03-17T09:05:43;17.50;;;7.65;;
52898;SDS011;38763;53.096;6.062;2024-03-17T09:08:28;18.48;;;7.50;;
52898;SDS011;38763;53.096;6.062;2024-03-17T09:10:54;16.50;;;7.35;;
52898;SDS011;38763;53.096;6.062;2024-03-17T09:13:22;16.23;;;7.10;;
52898;SDS011;38763;53.096;6.062;2024-03-17T09:15:52;12.63;;;6.63;;
52898;SDS011;38763;53.096;6.062;2024-03-17T09:18:18;15.27;;;7.45;;
52898;SDS011;38763;53.096;6.062;2024-03-17T09:20:43;14.93;;;7.25;;
52898;SDS011;38763;53.096;6.062;2024-03-17T09:23:09;14.52;;;7.43;;
52898;SDS011;38763;53.096;6.062;2024-03-17T09:25:35;16.00;;;7.15;;
52898;SDS011;38763;53.096;6.062;2024-03-17T09:28:00;12.63;;;6.75;;
52898;SDS011;38763;53.096;6.062;2024-03-17T09:30:26;17.02;;;7.95;;
52898;SDS011;38763;53.096;6.062;2024-03-17T09:32:52;13.82;;;7.47;;
52898;SDS011;38763;53.096;6.062;2024-03-17T09:35:20;14.38;;;7.50;;
52898;SDS011;38763;53.096;6.062;2024-03-17T09:37:46;13.55;;;7.32;;
52898;SDS011;38763;53.096;6.062;2024-03-17T09:40:14;12.65;;;6.97;;
52898;SDS011;38763;53.096;6.062;2024-03-17T09:42:40;13.93;;;6.82;;
52898;SDS011;38763;53.096;6.062;2024-03-17T09:45:09;13.23;;;6.72;;
52898;SDS011;38763;53.096;6.062;2024-03-17T09:47:35;12.30;;;6.85;;
52898;SDS011;38763;53.096;6.062;2024-03-17T09:50:01;14.35;;;7.22;;
52898;SDS011;38763;53.096;6.062;2024-03-17T09:52:27;15.00;;;7.28;;
52898;SDS011;38763;53.096;6.062;2024-03-17T09:55:01;13.02;;;6.93;;
52898;SDS011;38763;53.096;6.062;2024-03-17T09:57:35;12.27;;;7.47;;
52898;SDS011;38763;53.096;6.062;2024-03-17T10:00:14;13.85;;;7.28;;
52898;SDS011;38763;53.096;6.062;2024-03-17T10:02:44;12.70;;;7.47;;
52898;SDS011;38763;53.096;6.062;2024-03-17T10:05:20;12.15;;;7.03;;
52898;SDS011;38763;53.096;6.062;2024-03-17T10:07:48;14.75;;;7.53;;
52898;SDS011;38763;53.096;6.062;2024-03-17T10:10:20;12.82;;;6.72;;
52898;SDS011;38763;53.096;6.062;2024-03-17T10:12:49;16.52;;;7.57;;
52898;SDS011;38763;53.096;6.062;2024-03-17T10:15:16;14.85;;;7.75;;
52898;SDS011;38763;53.096;6.062;2024-03-17T10:17:43;15.93;;;7.72;;
52898;SDS011;38763;53.096;6.062;2024-03-17T10:20:21;15.32;;;8.00;;
52898;SDS011;38763;53.096;6.062;2024-03-17T10:23:01;13.25;;;7.25;;
52898;SDS011;38763;53.096;6.062;2024-03-17T10:25:31;15.52;;;7.50;;
52898;SDS011;38763;53.096;6.062;2024-03-17T10:27:58;11.93;;;7.40;;
52898;SDS011;38763;53.096;6.062;2024-03-17T10:30:27;13.35;;;7.22;;
52898;SDS011;38763;53.096;6.062;2024-03-17T10:32:56;15.15;;;7.47;;
52898;SDS011;38763;53.096;6.062;2024-03-17T10:35:33;14.63;;;7.28;;
52898;SDS011;38763;53.096;6.062;2024-03-17T10:38:03;15.10;;;7.78;;
52898;SDS011;38763;53.096;6.062;2024-03-17T10:40:31;11.57;;;6.93;;
52898;SDS011;38763;53.096;6.062;2024-03-17T10:42:59;13.70;;;7.30;;
52898;SDS011;38763;53.096;6.062;2024-03-17T10:45:26;13.25;;;7.25;;
52898;SDS011;38763;53.096;6.062;2024-03-17T10:47:55;12.07;;;6.88;;
52898;SDS011;38763;53.096;6.062;2024-03-17T10:50:25;14.73;;;8.00;;
52898;SDS011;38763;53.096;6.062;2024-03-17T10:52:55;12.32;;;6.97;;
52898;SDS011;38763;53.096;6.062;2024-03-17T10:55:27;11.88;;;7.10;;
52898;SDS011;38763;53.096;6.062;2024-03-17T10:58:05;14.75;;;7.35;;
52898;SDS011;38763;53.096;6.062;2024-03-17T11:00:39;13.60;;;7.07;;
52898;SDS011;38763;53.096;6.062;2024-03-17T11:03:11;14.30;;;7.55;;
52898;SDS011;38763;53.096;6.062;2024-03-17T11:05:39;12.82;;;7.45;;
52898;SDS011;38763;53.096;6.062;2024-03-17T11:08:05;13.95;;;7.55;;
52898;SDS011;38763;53.096;6.062;2024-03-17T11:10:35;13.77;;;7.97;;
52898;SDS011;38763;53.096;6.062;2024-03-17T11:13:03;13.70;;;7.38;;
52898;SDS011;38763;53.096;6.062;2024-03-17T11:15:47;15.43;;;7.82;;
52898;SDS011;38763;53.096;6.062;2024-03-17T11:18:26;14.18;;;6.90;;
52898;SDS011;38763;53.096;6.062;2024-03-17T11:20:56;12.87;;;7.63;;
52898;SDS011;38763;53.096;6.062;2024-03-17T11:23:29;15.90;;;7.47;;
52898;SDS011;38763;53.096;6.062;2024-03-17T11:25:56;12.73;;;7.50;;
52898;SDS011;38763;53.096;6.062;2024-03-17T11:33:57;12.73;;;7.40;;
52898;SDS011;38763;53.096;6.062;2024-03-17T11:38:51;13.35;;;7.18;;
52898;SDS011;38763;53.096;6.062;2024-03-17T11:41:30;15.50;;;7.05;;
52898;SDS011;38763;53.096;6.062;2024-03-17T11:49:29;14.30;;;7.60;;
52898;SDS011;38763;53.096;6.062;2024-03-17T11:52:02;12.25;;;7.03;;
52898;SDS011;38763;53.096;6.062;2024-03-17T11:54:33;12.30;;;7.40;;
52898;SDS011;38763;53.096;6.062;2024-03-17T11:57:04;13.65;;;7.53;;
52898;SDS011;38763;53.096;6.062;2024-03-17T11:59:37;11.07;;;7.15;;
52898;SDS011;38763;53.096;6.062;2024-03-17T12:02:16;12.50;;;7.50;;
52898;SDS011;38763;53.096;6.062;2024-03-17T12:04:45;11.38;;;7.45;;
52898;SDS011;38763;53.096;6.062;2024-03-17T12:07:12;11.57;;;7.25;;
52898;SDS011;38763;53.096;6.062;2024-03-17T12:09:42;13.80;;;7.30;;
52898;SDS011;38763;53.096;6.062;2024-03-17T12:12:18;11.88;;;6.78;;
52898;SDS011;38763;53.096;6.062;2024-03-17T12:14:48;9.10;;;6.20;;
52898;SDS011;38763;53.096;6.062;2024-03-17T12:17:19;8.98;;;6.10;;
52898;SDS011;38763;53.096;6.062;2024-03-17T12:19:46;10.13;;;6.35;;
52898;SDS011;38763;53.096;6.062;2024-03-17T12:22:16;10.50;;;6.18;;
52898;SDS011;38763;53.096;6.062;2024-03-17T12:24:47;9.38;;;6.00;;
52898;SDS011;38763;53.096;6.062;2024-03-17T12:27:23;9.68;;;6.05;;
52898;SDS011;38763;53.096;6.062;2024-03-17T12:32:16;11.43;;;6.38;;
52898;SDS011;38763;53.096;6.062;2024-03-17T12:34:45;9.27;;;6.40;;
52898;SDS011;38763;53.096;6.062;2024-03-17T12:37:16;8.77;;;5.90;;
52898;SDS011;38763;53.096;6.062;2024-03-17T12:39:43;10.85;;;5.93;;
52898;SDS011;38763;53.096;6.062;2024-03-17T12:47:20;10.88;;;6.70;;
52898;SDS011;38763;53.096;6.062;2024-03-17T12:49:56;13.20;;;6.40;;
52898;SDS011;38763;53.096;6.062;2024-03-17T12:52:28;9.60;;;6.50;;
52898;SDS011;38763;53.096;6.062;2024-03-17T12:54:58;10.20;;;6.18;;
52898;SDS011;38763;53.096;6.062;2024-03-17T12:57:48;12.38;;;5.90;;
52898;SDS011;38763;53.096;6.062;2024-03-17T13:00:36;10.40;;;6.13;;
52898;SDS011;38763;53.096;6.062;2024-03-17T13:03:05;10.50;;;6.25;;
52898;SDS011;38763;53.096;6.062;2024-03-17T13:05:32;12.02;;;6.38;;
52898;SDS011;38763;53.096;6.062;2024-03-17T13:07:59;10.10;;;5.90;;
52898;SDS011;38763;53.096;6.062;2024-03-17T13:10:26;11.80;;;6.82;;
52898;SDS011;38763;53.096;6.062;2024-03-17T13:15:28;8.98;;;6.28;;
52898;SDS011;38763;53.096;6.062;2024-03-17T13:17:56;9.63;;;6.20;;
52898;SDS011;38763;53.096;6.062;2024-03-17T13:20:22;10.55;;;6.20;;
52898;SDS011;38763;53.096;6.062;2024-03-17T13:22:47;9.25;;;5.70;;
52898;SDS011;38763;53.096;6.062;2024-03-17T13:27:44;10.38;;;5.80;;
52898;SDS011;38763;53.096;6.062;2024-03-17T13:30:16;10.50;;;5.35;;
52898;SDS011;38763;53.096;6.062;2024-03-17T13:32:43;12.35;;;6.22;;
52898;SDS011;38763;53.096;6.062;2024-03-17T13:35:16;9.43;;;5.80;;
52898;SDS011;38763;53.096;6.062;2024-03-17T13:37:47;10.27;;;6.18;;
52898;SDS011;38763;53.096;6.062;2024-03-17T13:40:14;10.07;;;6.95;;
52898;SDS011;38763;53.096;6.062;2024-03-17T13:42:43;10.75;;;6.75;;
52898;SDS011;38763;53.096;6.062;2024-03-17T13:45:10;9.80;;;6.22;;
52898;SDS011;38763;53.096;6.062;2024-03-17T13:47:37;11.77;;;6.95;;
52898;SDS011;38763;53.096;6.062;2024-03-17T13:50:03;13.18;;;7.00;;
52898;SDS011;38763;53.096;6.062;2024-03-17T13:52:35;12.23;;;6.68;;
52898;SDS011;38763;53.096;6.062;2024-03-17T13:55:02;11.70;;;6.75;;
52898;SDS011;38763;53.096;6.062;2024-03-17T13:57:30;11.73;;;7.25;;
52898;SDS011;38763;53.096;6.062;2024-03-17T13:59:55;10.95;;;6.05;;
52898;SDS011;38763;53.096;6.062;2024-03-17T14:02:22;13.18;;;7.45;;
52898;SDS011;38763;53.096;6.062;2024-03-17T14:04:48;10.88;;;7.07;;
52898;SDS011;38763;53.096;6.062;2024-03-17T14:07:14;9.98;;;6.25;;
52898;SDS011;38763;53.096;6.062;2024-03-17T14:09:40;10.10;;;6.18;;
52898;SDS011;38763;53.096;6.062;2024-03-17T14:12:09;10.50;;;6.60;;
52898;SDS011;38763;53.096;6.062;2024-03-17T14:14:35;9.73;;;6.28;;
52898;SDS011;38763;53.096;6.062;2024-03-17T14:17:00;9.18;;;6.22;;
52898;SDS011;38763;53.096;6.062;2024-03-17T14:19:26;10.80;;;6.60;;
52898;SDS011;38763;53.096;6.062;2024-03-17T14:21:52;11.55;;;6.78;;
52898;SDS011;38763;53.096;6.062;2024-03-17T14:24:17;10.40;;;6.32;;
52898;SDS011;38763;53.096;6.062;2024-03-17T14:26:43;13.00;;;6.95;;
52898;SDS011;38763;53.096;6.062;2024-03-17T14:29:09;9.50;;;6.60;;
52898;SDS011;38763;53.096;6.062;2024-03-17T14:31:34;11.27;;;7.13;;
52898;SDS011;38763;53.096;6.062;2024-03-17T14:34:04;12.25;;;6.70;;
52898;SDS011;38763;53.096;6.062;2024-03-17T14:36:31;10.88;;;7.10;;
52898;SDS011;38763;53.096;6.062;2024-03-17T14:38:58;12.98;;;7.28;;
52898;SDS011;38763;53.096;6.062;2024-03-17T14:41:24;10.77;;;7.22;;
52898;SDS011;38763;53.096;6.062;2024-03-17T14:43:52;10.75;;;6.82;;
52898;SDS011;38763;53.096;6.062;2024-03-17T14:46:18;12.43;;;7.65;;
52898;SDS011;38763;53.096;6.062;2024-03-17T14:48:43;11.48;;;7.13;;
52898;SDS011;38763;53.096;6.062;2024-03-17T14:51:09;9.85;;;6.78;;
52898;SDS011;38763;53.096;6.062;2024-03-17T14:53:36;11.75;;;7.18;;
52898;SDS011;38763;53.096;6.062;2024-03-17T14:56:07;11.70;;;6.90;;
52898;SDS011;38763;53.096;6.062;2024-03-17T14:58:34;10.88;;;7.20;;
52898;SDS011;38763;53.096;6.062;2024-03-17T15:01:00;12.27;;;6.88;;
52898;SDS011;38763;53.096;6.062;2024-03-17T15:03:25;10.95;;;6.63;;
52898;SDS011;38763;53.096;6.062;2024-03-17T15:05:57;10.60;;;6.88;;
52898;SDS011;38763;53.096;6.062;2024-03-17T15:08:23;11.57;;;6.80;;
52898;SDS011;38763;53.096;6.062;2024-03-17T15:10:49;11.35;;;6.57;;
52898;SDS011;38763;53.096;6.062;2024-03-17T15:13:15;10.98;;;7.65;;
52898;SDS011;38763;53.096;6.062;2024-03-17T15:15:40;12.13;;;7.10;;
52898;SDS011;38763;53.096;6.062;2024-03-17T15:18:06;11.00;;;7.00;;